Time;durP1;ratioP1;P1;durP2;ratioP2;P2;SDS_P1;SDS_P2;PMS_P1;PMS_P2;Temp;Humidity;BMP_temperature;BMP_pressure;BME280_temperature;BME280_humidity;BME280_pressure;Samples;Min_cycle;Max_cycle;Signal;HPM_P1;HPM_P2
2023/01/02 00:01:07;;;;;;;4.18;1.58;;;13.10;99.90;;;;;;5039396;28;20138;-82
2023/01/02 00:03:57;;;;;;;3.00;1.85;;;13.10;99.90;;;;;;5012070;28;20044;-85
2023/01/02 00:06:45;;;;;;;6.90;2.10;;;13.10;99.90;;;;;;5038401;28;20044;-83
2023/01/02 00:09:32;;;;;;;7.13;1.75;;;13.10;99.90;;;;;;5041998;28;20067;-84
2023/01/02 00:12:20;;;;;;;4.43;1.88;;;13.00;99.90;;;;;;5049688;28;20045;-83
2023/01/02 00:15:08;;;;;;;4.32;1.98;;;13.00;99.90;;;;;;5039775;28;20048;-84
2023/01/02 00:17:55;;;;;;;4.95;2.15;;;13.00;99.90;;;;;;5039069;28;20392;-83
2023/01/02 00:20:43;;;;;;;3.20;1.90;;;12.90;99.90;;;;;;5036589;28;20064;-85
2023/01/02 00:23:32;;;;;;;5.38;1.90;;;12.80;99.90;;;;;;5038670;28;20052;-84
2023/01/02 00:26:21;;;;;;;5.03;1.83;;;12.70;99.90;;;;;;5038010;28;20041;-83
2023/01/02 00:29:08;;;;;;;2.97;1.85;;;12.70;99.90;;;;;;5039028;28;20075;-85
2023/01/02 00:31:56;;;;;;;3.88;1.80;;;12.60;99.90;;;;;;5028179;28;20041;-84
2023/01/02 00:34:45;;;;;;;6.50;1.95;;;12.50;99.90;;;;;;5046745;28;20175;-84
2023/01/02 00:37:33;;;;;;;4.88;2.20;;;12.40;99.90;;;;;;5034620;28;20446;-83
2023/01/02 00:40:21;;;;;;;7.53;2.15;;;12.40;99.90;;;;;;5033624;28;20450;-84
2023/01/02 00:43:11;;;;;;;3.70;2.03;;;12.30;99.90;;;;;;5041208;28;20481;-86
2023/01/02 00:45:58;;;;;;;4.72;2.47;;;12.20;99.90;;;;;;5033120;28;20049;-84
2023/01/02 00:48:45;;;;;;;3.25;2.00;;;12.20;99.90;;;;;;5032256;28;20041;-84
2023/01/02 00:51:34;;;;;;;3.55;1.98;;;12.20;99.90;;;;;;5036608;28;20045;-83
2023/01/02 00:54:22;;;;;;;5.72;2.45;;;12.20;99.90;;;;;;5039834;28;20481;-84
2023/01/02 00:57:09;;;;;;;6.38;2.38;;;12.10;99.90;;;;;;5030043;28;20095;-86
2023/01/02 00:59:59;;;;;;;4.75;2.08;;;12.10;99.90;;;;;;5034852;28;20067;-84
2023/01/02 01:02:46;;;;;;;8.05;2.05;;;12.00;99.90;;;;;;5046867;28;20041;-85
2023/01/02 01:05:39;;;;;;;5.18;2.08;;;12.10;99.90;;;;;;5037127;28;20074;-85
2023/01/02 01:08:30;;;;;;;3.95;2.13;;;12.00;99.90;;;;;;5035679;28;20065;-86
2023/01/02 01:11:19;;;;;;;6.93;2.00;;;12.00;99.90;;;;;;5033978;28;20051;-86
2023/01/02 01:14:06;;;;;;;4.35;2.10;;;12.00;99.90;;;;;;5038076;28;20056;-84
2023/01/02 01:16:57;;;;;;;5.60;2.08;;;12.00;99.90;;;;;;5022434;28;20049;-85
2023/01/02 01:19:46;;;;;;;3.03;2.00;;;12.00;99.90;;;;;;5039511;28;20097;-85
2023/01/02 01:22:34;;;;;;;3.53;2.17;;;12.00;99.90;;;;;;5011282;28;20044;-83
2023/01/02 01:25:22;;;;;;;4.90;2.20;;;12.10;99.90;;;;;;5031126;28;20040;-83
2023/01/02 01:28:09;;;;;;;5.88;2.22;;;12.00;99.90;;;;;;5035803;28;20049;-84
2023/01/02 01:31:08;;;;;;;4.25;2.17;;;12.10;99.90;;;;;;5037635;28;20099;-85
2023/01/02 01:34:18;;;;;;;5.68;2.67;;;12.10;99.90;;;;;;4961249;28;20070;-85
2023/01/02 01:37:06;;;;;;;4.72;2.00;;;12.10;99.90;;;;;;4964796;28;20047;-84
2023/01/02 01:39:55;;;;;;;4.57;2.00;;;12.20;99.90;;;;;;4967751;28;20145;-85
2023/01/02 01:42:43;;;;;;;8.55;2.10;;;12.20;99.90;;;;;;4954164;28;20063;-83
2023/01/02 01:45:35;;;;;;;5.15;2.03;;;12.20;99.90;;;;;;4952737;28;20552;-85
2023/01/02 01:48:24;;;;;;;4.72;2.35;;;12.20;99.90;;;;;;4963141;28;20051;-83
2023/01/02 01:51:15;;;;;;;5.55;2.33;;;12.30;99.90;;;;;;4976246;28;20045;-83
2023/01/02 01:54:09;;;;;;;5.80;1.98;;;12.20;99.90;;;;;;5031482;28;20366;-84
2023/01/02 01:57:07;;;;;;;5.80;1.90;;;12.20;99.90;;;;;;5025010;28;20087;-83
2023/01/02 01:59:57;;;;;;;5.15;2.30;;;12.10;99.90;;;;;;5022786;28;20492;-86
2023/01/02 02:02:50;;;;;;;3.45;1.90;;;12.10;99.90;;;;;;5026214;28;20075;-83
2023/01/02 02:05:42;;;;;;;5.97;2.30;;;12.10;99.90;;;;;;5034413;28;20041;-84
2023/01/02 02:08:36;;;;;;;6.32;2.30;;;12.10;99.90;;;;;;5029566;28;20079;-84
2023/01/02 02:11:24;;;;;;;5.32;2.50;;;12.10;99.90;;;;;;5036652;28;20056;-85
2023/01/02 02:14:12;;;;;;;6.05;1.92;;;12.20;99.90;;;;;;5037259;28;20094;-84
2023/01/02 02:17:15;;;;;;;4.03;2.15;;;12.20;99.90;;;;;;5019788;28;20092;-84
2023/01/02 02:20:02;;;;;;;3.75;2.03;;;12.30;99.90;;;;;;5034576;28;20056;-84
2023/01/02 02:22:56;;;;;;;7.90;2.33;;;12.30;99.90;;;;;;5037088;28;20167;-86
2023/01/02 02:26:12;;;;;;;4.47;2.13;;;12.40;99.90;;;;;;5037251;28;20049;-85
2023/01/02 02:29:21;;;;;;;4.53;1.98;;;12.50;99.90;;;;;;5038853;28;20077;-85
2023/01/02 02:32:31;;;;;;;3.58;1.70;;;12.60;99.90;;;;;;5047817;28;20064;-86
2023/01/02 02:35:47;;;;;;;8.50;2.55;;;12.50;99.90;;;;;;5042451;28;20052;-84
2023/01/02 02:38:43;;;;;;;;;;;12.60;99.90;;;;;;5042959;28;20592;-84
2023/01/02 02:41:31;;;;;;;7.22;2.17;;;12.60;99.90;;;;;;5048018;28;20327;-84
2023/01/02 02:44:43;;;;;;;4.28;2.22;;;12.60;99.90;;;;;;5038036;28;20478;-87
2023/01/02 02:47:52;;;;;;;6.43;2.20;;;12.50;99.90;;;;;;5039855;28;20060;-86
2023/01/02 02:50:55;;;;;;;5.07;1.98;;;12.50;99.90;;;;;;5032558;28;20072;-83
2023/01/02 02:53:46;;;;;;;;;;;12.50;99.90;;;;;;5040675;28;20132;-84
2023/01/02 02:56:34;;;;;;;6.40;2.63;;;12.40;99.90;;;;;;5038232;28;19929;-84
2023/01/02 02:59:24;;;;;;;9.93;2.10;;;12.40;99.90;;;;;;5041653;28;20064;-86
2023/01/02 03:02:16;;;;;;;5.32;2.53;;;12.40;99.90;;;;;;5032049;28;20122;-84
2023/01/02 03:05:11;;;;;;;3.92;2.33;;;12.40;99.90;;;;;;5040919;28;20045;-85
2023/01/02 03:08:22;;;;;;;5.32;1.98;;;12.30;99.90;;;;;;5040937;28;20045;-84
2023/01/02 03:11:25;;;;;;;5.13;1.92;;;12.30;99.90;;;;;;5037483;28;20042;-86
2023/01/02 03:14:41;;;;;;;5.68;1.95;;;12.20;99.90;;;;;;5048899;28;20045;-83
2023/01/02 03:17:38;;;;;;;4.72;2.00;;;12.20;99.90;;;;;;5034909;28;20057;-83
2023/01/02 03:20:30;;;;;;;4.55;2.00;;;12.10;99.90;;;;;;5041429;28;20056;-84
2023/01/02 03:23:25;;;;;;;2.80;2.22;;;12.00;99.90;;;;;;5039369;28;20072;-84
2023/01/02 03:26:42;;;;;;;5.72;2.13;;;11.90;99.90;;;;;;5056375;28;20037;-84
2023/01/02 03:29:42;;;;;;;6.20;3.25;;;11.80;99.90;;;;;;5039181;28;20045;-85
2023/01/02 03:32:36;;;;;;;4.80;2.00;;;11.80;99.90;;;;;;5029817;28;20376;-84
2023/01/02 03:35:31;;;;;;;4.03;2.13;;;11.70;99.90;;;;;;5040104;28;20060;-84
2023/01/02 03:38:27;;;;;;;6.10;2.15;;;11.70;99.90;;;;;;5034757;28;20045;-83
2023/01/02 03:41:26;;;;;;;4.65;1.90;;;11.60;99.90;;;;;;5031689;28;20063;-84
2023/01/02 03:44:18;;;;;;;3.35;2.45;;;11.60;99.90;;;;;;5037584;28;20167;-84
2023/01/02 03:47:30;;;;;;;4.03;2.00;;;11.50;99.90;;;;;;5027294;28;20087;-84
2023/01/02 03:50:22;;;;;;;8.98;2.50;;;11.50;99.90;;;;;;5033899;28;20434;-86
2023/01/02 03:53:10;;;;;;;12.50;2.63;;;11.50;99.90;;;;;;5037935;28;20049;-83
2023/01/02 03:56:07;;;;;;;4.75;1.75;;;11.50;99.90;;;;;;5043129;28;20099;-84
2023/01/02 03:59:24;;;;;;;5.38;1.92;;;11.40;99.90;;;;;;5041612;28;20374;-85
2023/01/02 04:02:37;;;;;;;3.72;2.00;;;11.40;99.90;;;;;;5033245;28;20044;-85
2023/01/02 04:05:36;;;;;;;5.22;1.90;;;11.40;99.90;;;;;;5047369;28;20100;-83
2023/01/02 04:08:32;;;;;;;4.43;2.30;;;11.40;99.90;;;;;;5036071;28;20046;-85
2023/01/02 04:11:22;;;;;;;7.78;2.58;;;11.40;99.90;;;;;;5051744;28;20071;-83
2023/01/02 04:14:19;;;;;;;6.05;2.40;;;11.30;99.90;;;;;;5037080;28;20438;-85
2023/01/02 04:17:07;;;;;;;7.72;2.45;;;11.30;99.90;;;;;;5031329;28;20136;-83
2023/01/02 04:20:06;;;;;;;5.05;2.08;;;11.30;99.90;;;;;;5031384;28;20048;-84
2023/01/02 04:23:19;;;;;;;8.18;1.98;;;11.30;99.90;;;;;;5031767;28;20402;-84
2023/01/02 04:26:15;;;;;;;8.00;2.50;;;11.30;99.90;;;;;;5019290;28;20103;-84
2023/01/02 04:29:03;;;;;;;6.22;2.13;;;11.30;99.90;;;;;;5016440;28;20065;-84
2023/01/02 04:32:02;;;;;;;7.38;1.73;;;11.20;99.90;;;;;;5008850;28;20053;-83
2023/01/02 04:34:52;;;;;;;8.10;2.50;;;11.20;99.90;;;;;;5032264;28;20085;-84
2023/01/02 04:37:43;;;;;;;4.03;2.00;;;11.10;99.90;;;;;;5028097;28;20061;-84
2023/01/02 04:40:31;;;;;;;4.07;2.10;;;11.10;99.90;;;;;;5036778;28;20057;-83
2023/01/02 04:43:23;;;;;;;6.25;2.17;;;10.90;99.90;;;;;;5033310;28;20037;-83
2023/01/02 04:46:13;;;;;;;4.10;2.42;;;10.90;99.90;;;;;;5045909;28;20048;-85
2023/01/02 04:49:00;;;;;;;11.75;2.30;;;11.00;99.90;;;;;;5025284;28;20038;-84
2023/01/02 04:51:47;;;;;;;8.43;2.38;;;11.10;99.90;;;;;;5029522;28;20080;-83
2023/01/02 04:54:34;;;;;;;7.38;2.17;;;11.00;99.90;;;;;;5029009;28;20459;-84
2023/01/02 04:57:23;;;;;;;6.95;2.10;;;11.10;99.90;;;;;;5035963;28;20486;-85
2023/01/02 05:00:10;;;;;;;3.63;1.90;;;11.10;99.90;;;;;;5037873;28;20045;-84
2023/01/02 05:03:01;;;;;;;6.68;2.55;;;11.30;99.90;;;;;;5038028;28;20048;-85
2023/01/02 05:05:49;;;;;;;5.90;2.30;;;11.30;99.90;;;;;;5038861;28;20045;-83
2023/01/02 05:08:37;;;;;;;4.15;1.92;;;11.30;99.90;;;;;;5022073;28;20044;-83
2023/01/02 05:11:24;;;;;;;7.05;2.75;;;11.30;99.90;;;;;;5037733;28;20057;-84
2023/01/02 05:14:11;;;;;;;6.85;2.53;;;11.20;99.90;;;;;;5027463;28;20462;-84
2023/01/02 05:17:00;;;;;;;5.57;2.38;;;11.30;99.90;;;;;;5035070;28;20056;-83
2023/01/02 05:19:47;;;;;;;6.35;2.28;;;11.30;99.90;;;;;;5031886;28;20060;-84
2023/01/02 05:25:43;;;;;;;6.63;2.10;;;11.30;99.90;;;;;;5050730;28;20159;-87
2023/01/02 05:28:31;;;;;;;9.73;2.58;;;11.30;99.90;;;;;;5053534;28;20037;-85
2023/01/02 05:31:26;;;;;;;5.97;2.58;;;11.30;99.90;;;;;;5038318;28;20159;-83
2023/01/02 05:34:18;;;;;;;5.50;2.20;;;11.30;99.90;;;;;;5037509;28;20132;-83
2023/01/02 05:37:05;;;;;;;6.40;2.95;;;11.30;99.90;;;;;;5025601;28;20056;-83
2023/01/02 05:40:04;;;;;;;7.65;2.50;;;11.20;99.90;;;;;;5026798;28;20463;-83
2023/01/02 05:42:52;;;;;;;7.88;2.67;;;11.20;99.90;;;;;;5030540;28;20115;-84
2023/01/02 05:45:39;;;;;;;8.25;2.80;;;11.30;99.90;;;;;;5045465;28;20046;-83
2023/01/02 05:48:30;;;;;;;7.40;2.72;;;11.40;99.90;;;;;;5024956;28;20046;-84
2023/01/02 05:51:19;;;;;;;7.05;2.55;;;11.50;99.90;;;;;;5038404;28;20052;-85
2023/01/02 05:54:07;;;;;;;5.82;2.63;;;11.40;99.90;;;;;;5016831;28;20045;-84
2023/01/02 05:56:56;;;;;;;5.28;2.45;;;11.40;99.90;;;;;;5036272;28;20053;-87
2023/01/02 05:59:43;;;;;;;10.90;2.95;;;11.30;99.90;;;;;;5037555;28;20052;-84
2023/01/02 06:02:31;;;;;;;6.38;2.67;;;11.20;99.90;;;;;;5036075;28;20045;-83
2023/01/02 06:05:19;;;;;;;7.50;2.70;;;11.10;99.90;;;;;;5040056;28;20045;-85
2023/01/02 06:08:06;;;;;;;6.53;2.55;;;11.10;99.90;;;;;;5022787;28;20072;-83
2023/01/02 06:10:53;;;;;;;10.23;2.70;;;11.00;99.90;;;;;;5040487;28;20045;-84
2023/01/02 06:13:41;;;;;;;7.35;2.75;;;11.00;99.90;;;;;;5028712;28;20067;-86
2023/01/02 06:16:28;;;;;;;9.85;2.63;;;11.00;99.90;;;;;;5041756;28;20041;-85
2023/01/02 06:19:18;;;;;;;8.98;3.25;;;11.00;99.90;;;;;;5027551;28;20441;-84
2023/01/02 06:22:09;;;;;;;9.32;2.95;;;11.00;99.90;;;;;;5034619;28;20546;-83
2023/01/02 06:24:58;;;;;;;7.75;3.33;;;11.00;99.90;;;;;;5040418;28;20126;-84
2023/01/02 06:27:48;;;;;;;5.85;2.53;;;11.10;99.90;;;;;;5041607;28;20101;-86
2023/01/02 06:30:43;;;;;;;7.53;2.92;;;11.10;99.90;;;;;;5029667;28;20053;-83
2023/01/02 06:33:31;;;;;;;7.68;2.92;;;11.10;99.90;;;;;;5016411;28;20079;-83
2023/01/02 06:36:18;;;;;;;8.75;2.70;;;11.00;99.90;;;;;;5033274;28;20053;-83
2023/01/02 06:39:07;;;;;;;11.07;3.00;;;11.00;99.90;;;;;;5024361;28;20383;-83
2023/01/02 06:41:59;;;;;;;3.55;2.38;;;11.10;99.90;;;;;;5044840;28;20053;-86
2023/01/02 06:45:07;;;;;;;;;;;11.20;99.90;;;;;;5013099;28;20174;-84
2023/01/02 06:48:44;;;;;;;10.93;2.70;;;11.20;99.90;;;;;;5011150;28;19988;-84
2023/01/02 06:51:37;;;;;;;;;;;11.10;99.90;;;;;;4954247;28;20043;-84
2023/01/02 06:54:50;;;;;;;5.88;2.72;;;11.10;99.90;;;;;;5015047;28;19928;-84
2023/01/02 06:57:43;;;;;;;9.02;3.50;;;11.00;99.90;;;;;;5031280;28;20041;-83
2023/01/02 07:00:33;;;;;;;9.95;2.50;;;10.90;99.90;;;;;;5025917;28;20175;-84
2023/01/02 07:03:23;;;;;;;8.38;3.53;;;10.90;99.90;;;;;;5039037;28;20045;-83
2023/01/02 07:06:17;;;;;;;6.60;2.63;;;10.90;99.90;;;;;;5019696;28;20089;-83
2023/01/02 07:09:34;;;;;;;6.68;2.83;;;10.90;99.90;;;;;;4973633;28;20172;-88
2023/01/02 07:12:26;;;;;;;7.80;2.63;;;10.80;99.90;;;;;;4975951;28;20188;-83
2023/01/02 07:15:23;;;;;;;9.60;3.28;;;10.90;99.90;;;;;;4978843;28;20046;-84
2023/01/02 07:18:13;;;;;;;10.45;3.38;;;10.90;99.90;;;;;;4975384;28;20053;-82
2023/01/02 07:21:38;;;;;;;5.10;3.13;;;11.00;99.90;;;;;;4989136;28;20042;-84
2023/01/02 07:24:44;;;;;;;;;;;;;;;;;;;;;
2023/01/02 07:28:31;;;;;;;5.47;2.38;;;11.10;99.90;;;;;;4987779;28;20729;-81
2023/01/02 07:31:21;;;;;;;6.32;2.67;;;11.10;99.90;;;;;;4975216;28;20511;-82
2023/01/02 07:34:55;;;;;;;;;;;;;;;;;;;;;
2023/01/02 07:38:47;;;;;;;;;;;;;;;;;;;;;
2023/01/02 08:38:49;;;;;;;;;;;;;;;;;;;;;
2023/01/02 09:07:33;;;;;;;;;;;;;;;;;;;;;
2023/01/02 10:39:27;;;;;;;7.28;2.60;;;14.60;99.90;;;;;;5004308;23;20056;-86
2023/01/02 10:47:52;;;;;;;;;;;;;;;;;;;;;
2023/01/02 10:51:12;;;;;;;5.40;2.28;;;15.50;99.90;;;;;;4928307;29;20048;-82
2023/01/02 10:55:07;;;;;;;;;;;;;;;;;;;;;
2023/01/02 10:58:37;;;;;;;4.57;1.92;;;16.80;99.90;;;;;;4931731;29;20107;-82
2023/01/02 11:01:28;;;;;;;5.15;2.08;;;16.40;95.90;;;;;;4929867;29;20076;-84
2023/01/02 11:04:30;;;;;;;10.23;2.30;;;16.80;96.20;;;;;;4917753;29;20059;-83
2023/01/02 11:07:26;;;;;;;;;;;16.40;91.90;;;;;;4900833;29;20042;-84
2023/01/02 11:14:05;;;;;;;6.05;2.13;;;16.70;94.40;;;;;;4918293;29;20044;-83
2023/01/02 11:17:05;;;;;;;5.82;2.35;;;17.50;90.20;;;;;;4900434;29;20040;-83
2023/01/02 11:20:03;;;;;;;8.23;2.13;;;16.90;83.80;;;;;;4904779;29;20063;-82
2023/01/02 11:23:12;;;;;;;11.00;2.35;;;16.20;82.10;;;;;;4903329;29;20112;-84
2023/01/02 11:26:19;;;;;;;11.80;2.70;;;15.40;80.20;;;;;;4911528;29;20048;-83
2023/01/02 11:29:47;;;;;;;7.88;2.63;;;14.80;79.80;;;;;;4908067;29;20245;-86
2023/01/02 11:33:23;;;;;;;6.75;2.45;;;14.30;83.40;;;;;;4901926;29;20101;-86
2023/01/02 11:36:12;;;;;;;7.55;2.22;;;14.10;85.10;;;;;;4915571;29;20134;-86
2023/01/02 11:39:22;;;;;;;5.75;2.47;;;14.10;85.00;;;;;;4905599;29;20107;-84
2023/01/02 11:45:37;;;;;;;8.38;2.53;;;14.70;88.90;;;;;;4901233;29;20044;-83
2023/01/02 11:48:24;;;;;;;8.63;2.60;;;15.00;88.20;;;;;;4895874;29;20039;-84
2023/01/02 11:51:16;;;;;;;14.10;3.03;;;14.90;82.10;;;;;;4917057;29;20379;-85
2023/01/02 11:54:11;;;;;;;;;;;14.70;88.80;;;;;;4919520;29;20063;-85
2023/01/02 11:57:02;;;;;;;7.68;2.90;;;14.60;88.90;;;;;;4918946;29;19923;-86
2023/01/02 11:59:54;;;;;;;10.10;2.85;;;14.60;86.00;;;;;;4904854;29;20048;-85
2023/01/02 12:02:47;;;;;;;11.85;3.08;;;14.50;85.90;;;;;;4935467;29;20438;-84
2023/01/02 12:06:12;;;;;;;6.15;2.65;;;14.50;89.00;;;;;;4910935;29;20060;-84
2023/01/02 12:09:22;;;;;;;8.95;2.58;;;14.60;95.70;;;;;;4919641;29;20147;-85
2023/01/02 12:12:51;;;;;;;6.70;2.38;;;15.20;89.10;;;;;;4908808;29;20123;-84
2023/01/02 12:15:51;;;;;;;8.45;2.38;;;15.80;82.20;;;;;;4917395;29;20052;-82
2023/01/02 12:18:48;;;;;;;10.63;3.13;;;15.90;79.00;;;;;;4917196;29;20066;-83
2023/01/02 12:22:09;;;;;;;8.25;3.17;;;16.90;81.00;;;;;;4923839;29;20062;-88
2023/01/02 15:23:25;;;;;;;11.00;2.92;;;12.80;99.90;;;;;;5810538;23;20973;-87
2023/01/02 15:26:30;;;;;;;13.88;3.70;;;12.80;99.90;;;;;;4914991;29;20045;-84
2023/01/02 15:29:27;;;;;;;19.15;3.70;;;12.70;99.90;;;;;;4900738;29;20047;-85
2023/01/02 15:32:21;;;;;;;14.60;3.00;;;12.60;99.90;;;;;;4918678;29;20258;-86
2023/01/02 15:35:09;;;;;;;13.43;3.50;;;12.50;99.90;;;;;;4909181;29;20056;-84
2023/01/02 15:37:56;;;;;;;15.32;3.08;;;12.50;99.90;;;;;;4922294;29;20062;-84
2023/01/02 15:40:44;;;;;;;11.32;3.10;;;12.40;99.90;;;;;;4918610;29;20131;-84
2023/01/02 15:46:44;;;;;;;12.20;3.20;;;12.30;99.90;;;;;;4919820;29;20080;-84
2023/01/02 15:49:33;;;;;;;12.50;3.53;;;12.20;99.90;;;;;;4903641;29;20446;-84
2023/01/02 15:52:28;;;;;;;10.98;3.75;;;12.10;99.90;;;;;;4921738;29;20052;-86
2023/01/02 15:55:17;;;;;;;9.15;3.60;;;12.10;99.90;;;;;;4917433;29;20140;-86
2023/01/02 15:58:29;;;;;;;13.40;3.90;;;12.00;99.90;;;;;;4916250;29;20101;-85
2023/01/02 16:01:19;;;;;;;17.35;3.50;;;12.00;99.90;;;;;;4902552;29;20183;-85
2023/01/02 16:04:27;;;;;;;12.32;3.42;;;11.90;99.90;;;;;;4916048;29;20166;-85
2023/01/02 16:07:25;;;;;;;11.10;3.47;;;11.80;99.90;;;;;;4908641;29;20044;-85
2023/01/02 16:10:20;;;;;;;10.32;3.10;;;11.60;99.90;;;;;;4908847;29;20117;-85
2023/01/02 16:14:17;;;;;;;10.70;3.00;;;11.60;99.90;;;;;;4917880;29;20059;-85
2023/01/02 16:16:17;;;;;;;13.07;3.47;;;11.50;99.90;;;;;;4917128;29;20119;-85
2023/01/02 16:19:04;;;;;;;12.57;3.10;;;11.50;99.90;;;;;;4918987;29;20045;-86
2023/01/02 16:22:19;;;;;;;14.50;4.15;;;11.40;99.90;;;;;;4923781;29;20063;-88
2023/01/02 16:25:12;;;;;;;8.57;3.15;;;11.30;99.90;;;;;;4902222;29;20051;-87
2023/01/02 16:28:24;;;;;;;10.82;3.05;;;11.20;99.90;;;;;;4899451;29;20063;-85
2023/01/02 16:31:22;;;;;;;;;;;11.20;99.90;;;;;;4920247;29;20087;-85
2023/01/02 16:34:14;;;;;;;9.50;3.35;;;11.10;99.90;;;;;;4904191;29;20376;-84
2023/01/02 16:37:15;;;;;;;9.70;3.22;;;11.10;99.90;;;;;;4921056;29;20134;-87
2023/01/02 16:40:24;;;;;;;9.07;3.70;;;11.00;1.00;;;;;;4911422;29;20056;-86
2023/01/02 16:43:34;;;;;;;11.65;3.67;;;11.10;1.00;;;;;;4910092;29;20044;-84
2023/01/02 16:46:30;;;;;;;8.00;3.20;;;11.00;1.00;;;;;;4915825;29;20036;-87
2023/01/02 16:49:20;;;;;;;8.23;3.47;;;11.00;1.00;;;;;;4918166;29;20567;-84
2023/01/02 16:52:09;;;;;;;11.00;3.33;;;10.90;1.00;;;;;;4902844;29;20044;-87
2023/01/02 16:54:59;;;;;;;15.75;3.25;;;10.90;1.00;;;;;;4905580;29;20056;-88
2023/01/02 16:57:49;;;;;;;9.68;3.30;;;11.00;1.00;;;;;;4908281;29;20048;-86
2023/01/02 17:00:37;;;;;;;9.02;3.72;;;10.90;4.90;;;;;;4927338;29;20052;-88
2023/01/02 17:03:29;;;;;;;5.80;3.20;;;10.90;27.10;;;;;;4903295;29;20180;-85
2023/01/02 17:06:20;;;;;;;7.82;3.47;;;10.90;48.30;;;;;;4903968;29;20044;-89
2023/01/02 17:09:08;;;;;;;6.50;3.13;;;10.90;84.20;;;;;;4904717;29;20088;-87
2023/01/02 17:11:58;;;;;;;12.05;3.40;;;10.80;99.90;;;;;;4917453;29;20143;-86
2023/01/02 17:14:54;;;;;;;10.18;3.58;;;10.80;99.90;;;;;;4918486;29;20044;-88
2023/01/02 17:17:41;;;;;;;10.60;3.72;;;10.80;99.90;;;;;;4903377;29;20052;-87
2023/01/02 17:20:29;;;;;;;8.57;3.67;;;10.70;99.90;;;;;;4912275;29;20048;-88
2023/01/02 17:23:20;;;;;;;6.50;3.22;;;10.70;99.90;;;;;;4915970;29;20055;-87
2023/01/02 17:26:10;;;;;;;10.85;3.38;;;10.70;99.90;;;;;;4906452;29;20059;-89
2023/01/02 17:29:02;;;;;;;10.48;3.70;;;10.80;99.90;;;;;;4901882;29;20395;-86
2023/01/02 17:31:52;;;;;;;10.40;4.55;;;10.80;99.90;;;;;;4909585;29;20383;-88
2023/01/02 17:34:39;;;;;;;9.77;3.85;;;10.80;99.90;;;;;;4911782;29;20048;-87
2023/01/02 17:37:27;;;;;;;9.38;3.97;;;10.80;99.90;;;;;;4917380;29;20056;-86
2023/01/02 17:40:16;;;;;;;7.95;3.55;;;10.80;99.90;;;;;;4934838;29;20107;-87
2023/01/02 17:43:06;;;;;;;12.27;4.00;;;10.80;99.90;;;;;;4923550;29;20056;-89
2023/01/02 17:45:56;;;;;;;9.88;3.95;;;10.90;99.90;;;;;;4916409;29;20036;-86
2023/01/02 17:48:46;;;;;;;7.40;3.92;;;10.90;99.90;;;;;;4908269;29;20076;-88
2023/01/02 17:51:35;;;;;;;9.95;3.58;;;10.80;99.90;;;;;;4917804;29;20071;-87
2023/01/02 17:54:29;;;;;;;9.38;4.07;;;10.80;99.90;;;;;;4904072;29;20048;-89
2023/01/02 17:57:19;;;;;;;12.40;3.90;;;10.80;99.90;;;;;;4908144;29;20048;-91
2023/01/02 18:00:12;;;;;;;12.60;4.10;;;10.80;99.90;;;;;;4923641;29;20168;-90
2023/01/02 18:03:03;;;;;;;7.57;3.55;;;10.60;1.00;;;;;;4920999;29;20551;-89
2023/01/02 18:05:53;;;;;;;9.32;3.90;;;10.50;92.40;;;;;;4921767;29;20426;-88
2023/01/02 18:08:41;;;;;;;9.48;4.45;;;10.30;99.90;;;;;;4914378;29;20071;-87
2023/01/02 18:11:29;;;;;;;18.05;5.25;;;10.20;99.90;;;;;;4922161;29;20044;-88
2023/01/02 18:14:27;;;;;;;10.68;4.50;;;10.10;93.40;;;;;;4907253;29;20135;-88
2023/01/02 18:17:20;;;;;;;13.40;4.35;;;10.00;99.90;;;;;;4908927;29;20059;-86
2023/01/02 18:20:21;;;;;;;15.45;5.07;;;9.90;99.90;;;;;;4927893;29;20395;-86
2023/01/02 18:23:13;;;;;;;17.70;4.72;;;9.90;1.00;;;;;;4918413;29;20389;-89
2023/01/02 18:26:00;;;;;;;16.98;5.15;;;9.90;99.90;;;;;;4905274;29;20157;-85
2023/01/02 18:28:52;;;;;;;11.07;4.82;;;9.90;99.90;;;;;;4907214;29;20051;-87
2023/01/02 18:31:42;;;;;;;14.98;6.20;;;9.90;99.90;;;;;;4921286;29;20044;-86
2023/01/02 18:34:33;;;;;;;13.55;5.60;;;9.80;12.00;;;;;;4900175;29;20338;-85
2023/01/02 18:37:44;;;;;;;13.60;5.43;;;9.80;99.90;;;;;;4912465;29;20059;-86
2023/01/02 18:40:35;;;;;;;14.90;6.28;;;9.70;1.00;;;;;;4934089;29;20044;-87
2023/01/02 18:43:42;;;;;;;12.68;5.57;;;9.60;99.90;;;;;;4901811;29;20052;-86
2023/01/02 18:46:34;;;;;;;9.70;4.65;;;9.60;99.90;;;;;;4907597;29;20075;-84
2023/01/02 18:49:45;;;;;;;8.23;2.97;;;9.50;99.90;;;;;;4921942;29;20055;-84
2023/01/02 18:52:46;;;;;;;7.13;3.88;;;9.40;99.90;;;;;;4926989;29;20462;-88
2023/01/02 18:55:36;;;;;;;7.10;3.58;;;9.30;99.90;;;;;;4923739;29;20056;-86
2023/01/02 18:59:04;;;;;;;8.20;3.47;;;9.30;99.90;;;;;;4918548;29;20063;-86
2023/01/02 19:01:59;;;;;;;8.23;3.30;;;9.20;99.90;;;;;;4916431;29;20295;-85
2023/01/02 19:04:47;;;;;;;5.25;3.08;;;9.10;99.90;;;;;;4904258;29;20048;-86
2023/01/02 19:07:36;;;;;;;7.10;4.00;;;9.10;99.90;;;;;;4911488;29;20045;-85
2023/01/02 19:10:33;;;;;;;11.73;4.38;;;9.00;99.90;;;;;;4923758;29;20081;-85
2023/01/02 19:13:33;;;;;;;7.32;3.33;;;8.90;99.90;;;;;;4924707;29;20055;-88
2023/01/02 19:16:22;;;;;;;7.32;3.58;;;8.80;99.90;;;;;;4901865;29;20044;-86
2023/01/02 19:19:25;;;;;;;5.47;3.40;;;8.80;99.90;;;;;;4918877;29;20063;-85
2023/01/02 19:22:29;;;;;;;7.47;3.58;;;8.80;99.90;;;;;;4904788;29;20040;-86
2023/01/02 19:25:25;;;;;;;6.28;3.78;;;8.70;99.90;;;;;;4928220;29;20044;-85
2023/01/02 19:28:30;;;;;;;6.32;3.20;;;8.70;99.90;;;;;;4917201;29;20119;-86
2023/01/02 19:31:18;;;;;;;5.68;3.38;;;8.70;99.90;;;;;;4914845;29;20045;-85
2023/01/02 19:34:45;;;;;;;7.65;2.92;;;8.60;99.90;;;;;;4921759;29;20052;-87
2023/01/02 19:37:37;;;;;;;4.03;2.28;;;8.70;96.30;;;;;;4927675;29;20494;-87
2023/01/02 19:40:25;;;;;;;4.07;3.08;;;8.60;1.00;;;;;;4907545;29;20135;-87
2023/01/02 19:43:14;;;;;;;2.72;1.70;;;8.60;1.00;;;;;;4902841;29;20044;-86
2023/01/02 19:46:02;;;;;;;3.88;1.70;;;8.60;99.90;;;;;;4902043;29;20047;-87
2023/01/02 19:48:49;;;;;;;2.22;1.60;;;8.60;1.00;;;;;;4922131;29;20044;-86
2023/01/02 19:51:37;;;;;;;4.78;2.30;;;8.60;1.00;;;;;;4916077;29;20055;-89
2023/01/02 19:54:24;;;;;;;4.38;2.85;;;8.60;1.00;;;;;;4918833;29;20450;-85
2023/01/02 19:57:15;;;;;;;3.45;2.60;;;8.60;35.40;;;;;;4931407;29;20063;-87
2023/01/02 20:00:06;;;;;;;3.17;2.40;;;8.60;99.90;;;;;;4922761;29;20513;-86
2023/01/02 20:02:56;;;;;;;2.60;1.15;;;8.60;99.90;;;;;;4906627;29;20365;-86
2023/01/02 20:05:47;;;;;;;1.80;1.13;;;8.50;44.00;;;;;;4920899;29;20066;-86
2023/01/02 20:08:35;;;;;;;2.13;1.20;;;8.50;99.90;;;;;;4918909;29;20048;-86
2023/01/02 20:14:30;;;;;;;1.10;1.10;;;8.50;1.00;;;;;;4930520;29;20047;-85
2023/01/02 20:17:19;;;;;;;3.13;1.05;;;8.50;99.90;;;;;;4909887;29;20601;-86
2023/01/02 20:20:10;;;;;;;1.90;1.20;;;8.50;99.90;;;;;;4927470;29;20059;-86
2023/01/02 20:22:59;;;;;;;1.20;1.10;;;8.50;99.90;;;;;;4907776;29;20047;-87
2023/01/02 20:25:48;;;;;;;1.70;1.02;;;8.50;84.20;;;;;;4920279;29;21993;-86
2023/01/02 20:28:37;;;;;;;1.27;1.08;;;8.40;1.00;;;;;;4914111;29;20408;-87
2023/01/02 20:31:29;;;;;;;1.73;1.20;;;8.40;99.90;;;;;;4886736;29;20441;-87
2023/01/02 20:34:16;;;;;;;1.23;1.13;;;8.30;1.00;;;;;;4894609;29;20458;-86
2023/01/02 20:37:04;;;;;;;0.80;0.80;;;8.30;99.90;;;;;;4896817;29;20052;-86
2023/01/02 20:39:58;;;;;;;0.88;0.88;;;8.20;99.90;;;;;;4914342;29;20040;-86
2023/01/02 20:42:53;;;;;;;1.48;1.38;;;8.20;99.90;;;;;;4916093;29;20389;-86
2023/01/02 20:45:43;;;;;;;2.08;1.40;;;8.20;39.80;;;;;;4922306;29;20052;-86
2023/01/02 20:48:32;;;;;;;1.33;1.23;;;8.20;1.00;;;;;;4907254;29;20236;-88
2023/01/02 20:51:20;;;;;;;1.15;1.08;;;8.10;1.00;;;;;;4918919;29;20052;-87
2023/01/02 20:54:11;;;;;;;1.40;1.30;;;8.10;1.00;;;;;;4919155;29;20566;-87
2023/01/02 20:57:00;;;;;;;1.83;1.50;;;8.10;1.00;;;;;;4922368;29;20047;-86
2023/01/02 20:59:51;;;;;;;2.95;1.98;;;8.00;1.00;;;;;;4927024;29;20063;-87
2023/01/02 21:02:38;;;;;;;2.38;2.00;;;8.00;1.00;;;;;;4913073;29;20200;-88
2023/01/02 21:05:26;;;;;;;3.20;2.30;;;8.00;1.00;;;;;;4905321;29;20086;-85
2023/01/02 21:08:15;;;;;;;4.13;2.25;;;8.00;1.00;;;;;;4910434;29;20055;-85
2023/01/02 21:11:06;;;;;;;3.58;2.33;;;8.00;20.70;;;;;;4906447;29;20055;-88
2023/01/02 21:13:53;;;;;;;3.15;2.50;;;7.90;97.10;;;;;;4909611;29;20059;-86
2023/01/02 21:16:41;;;;;;;4.20;2.28;;;7.90;99.90;;;;;;4924081;29;20063;-87
2023/01/02 21:19:33;;;;;;;3.40;2.05;;;7.90;99.90;;;;;;4925706;29;20051;-87
2023/01/02 21:22:20;;;;;;;1.77;1.65;;;8.00;99.90;;;;;;4916415;29;20040;-86
2023/01/02 21:25:10;;;;;;;1.88;1.60;;;8.00;99.90;;;;;;4897204;29;20048;-87
2023/01/02 21:27:58;;;;;;;3.42;1.98;;;8.00;98.70;;;;;;4913626;29;20048;-86
2023/01/02 21:30:47;;;;;;;3.50;1.80;;;8.00;52.60;;;;;;4915578;29;20059;-87
2023/01/02 21:33:35;;;;;;;3.45;1.83;;;7.90;32.00;;;;;;4916742;29;20071;-87
2023/01/02 21:36:23;;;;;;;2.55;2.17;;;7.90;30.60;;;;;;4925503;29;20122;-87